Ames, Oklahoma
Current Conditions -  °F | °C
As of 5:58 PM on Sunday 25 Jan 2015 (Local Time) from KEND Reporting Station
Clear Clear  
Wind Chill:   Ceiling: Unl
Heat Index:   Visibility: 10mi
Dew Point: -3°   Wind: 12mph
Humidity: 42%   Direction: 10°N
Pressure: 30.08"   Gusts: NA
Location:  36.25°N, 98.19°W
Report Text: KEND 252358Z AUTO 01010KT 10SM CLR 09/M03 A3008 RMK AO2 SLP190 T00941029 10140 20094 401400068 52019 $
Loading
Personal Weather Stations






























Interactive Weather Map New forecast layout! Learn more

10-Day Weather Forecast

Advertisements
Track Severe Weather on mobile